Time;durP1;ratioP1;P1;durP2;ratioP2;P2;SDS_P1;SDS_P2;PMS_P1;PMS_P2;Temp;Humidity;BMP_temperature;BMP_pressure;BME280_temperature;BME280_humidity;BME280_pressure;Samples;Min_cycle;Max_cycle;Signal;HPM_P1;HPM_P2
2024/02/08 00:00:22;;;;;;;4.13;2.40;;;;;;;11.89;99.67;100813.56;2079513;28;20197;-65
2024/02/08 00:01:23;;;;;;;5.13;2.27;;;;;;;11.89;99.58;100802.47;2078647;28;20526;-65
2024/02/08 00:02:23;;;;;;;3.03;2.00;;;;;;;11.78;99.96;100788.84;2079301;28;20273;-65
2024/02/08 00:03:24;;;;;;;2.93;2.10;;;;;;;11.89;99.48;100806.00;2079156;28;21227;-65
2024/02/08 00:04:24;;;;;;;3.37;2.10;;;;;;;11.88;99.34;100807.22;2078401;28;20188;-65
2024/02/08 00:05:26;;;;;;;4.33;2.40;;;;;;;11.87;99.75;100800.13;2080770;28;20219;-65
2024/02/08 00:06:31;;;;;;;4.80;2.40;;;;;;;11.91;99.98;100806.38;2079240;28;20185;-65
2024/02/08 00:07:32;;;;;;;5.10;2.10;;;;;;;11.86;100.00;100790.22;2078814;28;20450;-65
2024/02/08 00:08:35;;;;;;;4.03;2.37;;;;;;;11.95;99.72;100809.03;2083887;28;20449;-65
2024/02/08 00:09:35;;;;;;;4.07;2.27;;;;;;;11.88;99.86;100798.91;2082990;28;20194;-65
2024/02/08 00:10:36;;;;;;;3.30;1.93;;;;;;;11.96;99.85;100810.59;2080860;28;20451;-65
2024/02/08 00:11:36;;;;;;;3.87;2.33;;;;;;;12.03;99.11;100805.63;2086360;28;20216;-65
2024/02/08 00:12:40;;;;;;;3.17;2.13;;;;;;;11.14;98.40;100669.59;2080613;28;20173;-65
2024/02/08 00:13:41;;;;;;;3.63;2.10;;;;;;;12.02;98.78;100801.31;2079244;28;20653;-65
2024/02/08 00:14:41;;;;;;;6.07;2.23;;;;;;;12.03;99.21;100810.41;2078883;28;20777;-65
2024/02/08 00:15:42;;;;;;;6.00;2.33;;;;;;;11.98;99.00;100803.41;2082882;28;20249;-65
2024/02/08 00:16:42;;;;;;;5.03;2.47;;;;;;;12.07;98.72;100813.88;2086954;28;20168;-66
2024/02/08 00:17:43;;;;;;;5.10;2.20;;;;;;;12.12;98.08;100813.34;2086257;28;20431;-65
2024/02/08 00:18:44;;;;;;;4.33;2.10;;;;;;;12.11;97.26;100809.81;2080660;28;20170;-65
2024/02/08 00:19:44;;;;;;;5.57;2.17;;;;;;;12.12;97.26;100813.34;2085252;28;20267;-65
2024/02/08 00:20:45;;;;;;;3.63;2.33;;;;;;;12.14;96.97;100808.91;2086446;28;20203;-66
2024/02/08 00:21:45;;;;;;;5.73;2.20;;;;;;;12.14;97.28;100816.47;2085845;28;20215;-65
2024/02/08 00:22:46;;;;;;;3.40;1.70;;;;;;;12.16;96.98;100814.81;2084725;28;20198;-65
2024/02/08 00:23:47;;;;;;;2.60;1.90;;;;;;;12.17;96.86;100804.47;2078678;28;20187;-65
2024/02/08 00:24:47;;;;;;;4.10;2.23;;;;;;;12.21;96.36;100810.72;2080247;28;20179;-65
2024/02/08 00:25:50;;;;;;;5.43;1.70;;;;;;;12.21;96.60;100805.94;2086141;28;20191;-65
2024/02/08 00:26:50;;;;;;;2.87;2.00;;;;;;;12.23;96.32;100811.84;2078865;28;20256;-65
2024/02/08 00:27:54;;;;;;;4.00;1.90;;;;;;;12.29;96.09;100810.06;2082481;28;20476;-66
2024/02/08 00:28:54;;;;;;;4.03;2.20;;;;;;;12.31;95.21;100813.22;2086366;28;30825;-65
2024/02/08 00:29:55;;;;;;;4.87;2.70;;;;;;;12.28;94.71;100816.84;2085089;28;20431;-65
2024/02/08 00:30:56;;;;;;;5.13;2.40;;;;;;;12.25;93.96;100812.16;2080210;28;20165;-65
2024/02/08 00:31:59;;;;;;;6.17;2.20;;;;;;;11.67;94.89;100715.38;2080692;28;20305;-65
2024/02/08 00:33:00;;;;;;;5.67;2.50;;;;;;;12.24;94.86;100807.84;2080475;28;20543;-66
2024/02/08 00:34:01;;;;;;;3.60;1.93;;;;;;;12.25;95.16;100814.94;2078408;28;20447;-65
2024/02/08 00:35:03;;;;;;;5.50;2.53;;;;;;;12.26;93.98;100810.19;2078903;28;20475;-66
2024/02/08 00:36:04;;;;;;;3.47;2.23;;;;;;;12.22;94.56;100817.81;2078957;28;20191;-65
2024/02/08 00:37:05;;;;;;;3.27;1.70;;;;;;;12.22;95.00;100801.94;2078722;28;20416;-65
2024/02/08 00:38:06;;;;;;;3.73;2.13;;;;;;;11.76;94.87;100740.53;2080533;28;20173;-65
2024/02/08 00:39:07;;;;;;;4.93;2.43;;;;;;;12.18;94.71;100804.03;2078958;28;21061;-65
2024/02/08 00:40:09;;;;;;;3.30;1.50;;;;;;;12.21;94.93;100807.94;2083967;28;20207;-65
2024/02/08 00:41:10;;;;;;;4.13;2.30;;;;;;;11.78;95.05;100741.66;2084415;28;20537;-65
2024/02/08 00:42:13;;;;;;;1.93;1.50;;;;;;;12.19;94.97;100811.16;2082532;28;20481;-65
2024/02/08 00:43:13;;;;;;;4.13;2.23;;;;;;;12.18;95.07;100808.81;2087342;28;20191;-65
2024/02/08 00:44:14;;;;;;;4.53;2.10;;;;;;;12.14;95.38;100810.91;2081176;28;20424;-65
2024/02/08 00:45:18;;;;;;;5.70;1.87;;;;;;;11.43;95.62;100706.47;2080580;28;20290;-65
2024/02/08 00:46:19;;;;;;;2.90;1.63;;;;;;;12.16;95.43;100816.81;2080349;28;20195;-65
2024/02/08 00:47:19;;;;;;;9.10;2.70;;;;;;;12.19;95.13;100805.59;2080447;28;20442;-65
2024/02/08 00:48:22;;;;;;;4.73;2.07;;;;;;;12.22;94.63;100790.84;2083051;28;20536;-65
2024/02/08 00:49:22;;;;;;;3.53;1.93;;;;;;;12.26;94.52;100791.53;2087736;28;20176;-65
2024/02/08 00:50:23;;;;;;;3.63;2.00;;;;;;;12.18;93.64;100800.47;2088618;28;20417;-66
2024/02/08 00:51:23;;;;;;;3.47;2.07;;;;;;;12.26;93.68;100804.63;2089223;28;20202;-65
2024/02/08 00:52:24;;;;;;;6.63;1.90;;;;;;;12.26;93.90;100799.06;2088044;28;20195;-65
2024/02/08 00:53:24;;;;;;;3.03;1.87;;;;;;;12.19;93.86;100777.06;2088375;28;20192;-65
2024/02/08 00:54:26;;;;;;;5.57;2.30;;;;;;;12.25;93.78;100792.72;2084467;28;20196;-66
2024/02/08 00:55:26;;;;;;;3.83;2.00;;;;;;;12.30;94.29;100796.97;2080612;28;20176;-65
2024/02/08 00:56:27;;;;;;;2.37;1.67;;;;;;;11.42;93.84;100663.28;2080564;28;20457;-66
2024/02/08 00:57:32;;;;;;;4.43;1.80;;;;;;;12.35;93.91;100799.97;2089664;28;20191;-65
2024/02/08 00:58:32;;;;;;;2.67;1.77;;;;;;;12.41;93.74;100803.00;2087251;28;20242;-65
2024/02/08 00:59:37;;;;;;;3.60;2.00;;;;;;;12.41;93.39;100803.00;2082060;28;20497;-66
2024/02/08 01:00:37;;;;;;;4.03;1.80;;;;;;;12.42;93.30;100797.00;2084260;28;20195;-65
2024/02/08 01:01:40;;;;;;;3.23;1.77;;;;;;;12.47;93.48;100788.13;2087192;28;20530;-65
2024/02/08 01:02:41;;;;;;;3.63;1.90;;;;;;;12.35;93.33;100774.22;2087082;28;20699;-66
2024/02/08 01:03:42;;;;;;;3.07;1.67;;;;;;;12.53;92.96;100793.91;2081235;28;20912;-65
2024/02/08 01:04:48;;;;;;;3.13;1.80;;;;;;;12.54;93.06;100793.47;2087423;28;20201;-65
2024/02/08 01:05:52;;;;;;;4.17;1.70;;;;;;;12.39;92.49;100761.75;2079611;28;20205;-65
2024/02/08 01:06:52;;;;;;;3.53;1.50;;;;;;;12.59;92.04;100783.81;2080395;28;20538;-65
2024/02/08 01:07:53;;;;;;;4.63;1.63;;;;;;;12.58;91.52;100779.47;2080328;28;20448;-65
2024/02/08 01:08:54;;;;;;;3.10;1.47;;;;;;;12.61;91.66;100782.13;2080270;28;20212;-66
2024/02/08 01:09:54;;;;;;;3.07;1.77;;;;;;;12.64;91.54;100786.81;2079285;28;20316;-65
2024/02/08 01:10:55;;;;;;;2.07;1.40;;;;;;;12.68;91.06;100781.94;2081439;28;20185;-65
2024/02/08 01:11:55;;;;;;;3.33;1.50;;;;;;;12.74;90.77;100784.94;2080068;28;20272;-65
2024/02/08 01:12:56;;;;;;;4.30;1.67;;;;;;;12.69;90.78;100791.06;2086170;28;20196;-65
2024/02/08 01:13:56;;;;;;;2.53;1.43;;;;;;;12.67;90.83;100777.63;2084082;28;20208;-65
2024/02/08 01:14:57;;;;;;;3.33;1.80;;;;;;;11.98;90.16;100666.50;2080187;28;20334;-65
2024/02/08 01:15:58;;;;;;;3.90;1.80;;;;;;;12.75;90.24;100790.06;2079847;28;20246;-65
2024/02/08 01:16:59;;;;;;;2.40;1.47;;;;;;;12.77;89.97;100790.41;2081706;28;20176;-65
2024/02/08 01:18:01;;;;;;;3.10;1.80;;;;;;;12.78;89.64;100786.41;2087620;28;20540;-65
2024/02/08 01:19:02;;;;;;;3.67;1.40;;;;;;;12.84;89.05;100786.63;2087703;28;20250;-65
2024/02/08 01:20:06;;;;;;;4.23;1.80;;;;;;;12.81;89.01;100787.53;2082231;28;20455;-65
2024/02/08 01:21:08;;;;;;;3.43;1.90;;;;;;;12.79;88.92;100779.63;2079678;28;20452;-65
2024/02/08 01:22:11;;;;;;;2.47;1.50;;;;;;;12.85;88.98;100788.19;2079996;28;20994;-65
2024/02/08 01:23:11;;;;;;;3.27;1.70;;;;;;;12.84;89.13;100787.41;2079982;28;20944;-65
2024/02/08 01:24:12;;;;;;;4.27;1.60;;;;;;;12.83;89.03;100777.53;2089471;28;20979;-65
2024/02/08 01:25:12;;;;;;;2.70;1.77;;;;;;;12.81;88.96;100774.38;2088147;28;20207;-66
2024/02/08 01:26:15;;;;;;;3.47;1.50;;;;;;;12.83;88.91;100776.72;2086041;28;20620;-65
2024/02/08 01:27:20;;;;;;;2.50;1.57;;;;;;;12.06;88.95;100659.56;2084099;28;20196;-66
2024/02/08 01:28:20;;;;;;;3.10;1.80;;;;;;;12.83;88.86;100782.28;2079865;28;20478;-65
2024/02/08 01:29:24;;;;;;;5.20;2.00;;;;;;;12.83;88.84;100777.53;2079910;28;20423;-65
2024/02/08 01:30:24;;;;;;;3.27;1.77;;;;;;;12.75;89.09;100767.06;2080200;28;20578;-65
2024/02/08 01:31:25;;;;;;;1.57;1.23;;;;;;;12.84;89.06;100773.50;2080999;28;20513;-65
2024/02/08 01:32:29;;;;;;;3.57;1.47;;;;;;;12.85;88.94;100777.84;2086043;28;20245;-66
2024/02/08 01:33:29;;;;;;;2.53;1.47;;;;;;;12.83;89.33;100780.31;2082806;28;20195;-65
2024/02/08 01:34:30;;;;;;;2.33;1.50;;;;;;;12.84;88.87;100781.84;2078974;28;20450;-65
2024/02/08 01:35:31;;;;;;;4.03;1.60;;;;;;;12.85;89.08;100768.72;2082006;28;20177;-66
2024/02/08 01:36:32;;;;;;;4.50;1.87;;;;;;;12.82;89.02;100777.97;2087459;28;20188;-65
2024/02/08 01:37:38;;;;;;;4.97;1.67;;;;;;;12.82;88.85;100775.94;2080999;28;20589;-65
2024/02/08 01:38:40;;;;;;;2.73;1.50;;;;;;;12.84;89.01;100772.72;2087206;28;20200;-65
2024/02/08 01:39:42;;;;;;;2.10;1.50;;;;;;;12.30;88.99;100700.47;2080460;28;20519;-65
2024/02/08 01:40:43;;;;;;;2.60;1.50;;;;;;;12.80;88.91;100764.50;2084460;28;20497;-65
2024/02/08 01:41:44;;;;;;;3.57;1.33;;;;;;;12.80;88.70;100772.84;2083991;28;20924;-65
2024/02/08 01:42:48;;;;;;;2.90;1.60;;;;;;;12.34;88.94;100709.50;2080244;28;20782;-65
2024/02/08 01:43:49;;;;;;;2.57;1.57;;;;;;;12.72;88.96;100767.94;2079990;28;20169;-65
2024/02/08 01:45:07;;;;;;;4.70;1.50;;;;;;;12.70;89.13;100771.16;2081362;28;20416;-65
2024/02/08 01:46:09;;;;;;;2.77;1.33;;;;;;;12.63;89.75;100763.03;2081621;28;20246;-65
2024/02/08 01:47:09;;;;;;;3.40;1.87;;;;;;;12.65;89.65;100768.91;2087970;28;20881;-65
2024/02/08 01:48:12;;;;;;;3.77;1.77;;;;;;;12.65;89.71;100763.34;2087799;28;20462;-65
2024/02/08 01:49:29;;;;;;;4.93;1.60;;;;;;;12.62;89.91;100763.47;2087997;28;20217;-65
2024/02/08 01:50:35;;;;;;;2.57;1.60;;;;;;;12.40;90.28;100738.28;2082582;28;21005;-65
2024/02/08 01:51:38;;;;;;;5.23;1.80;;;;;;;12.56;90.81;100766.00;2083833;28;20515;-65
2024/02/08 01:52:42;;;;;;;2.27;1.33;;;;;;;12.47;91.23;100763.13;2084378;28;20455;-65
2024/02/08 01:53:44;;;;;;;2.47;1.47;;;;;;;12.48;91.78;100767.44;2081442;28;20438;-65
2024/02/08 01:54:48;;;;;;;5.63;1.80;;;;;;;12.49;92.09;100765.44;2087240;28;20414;-66
2024/02/08 01:55:51;;;;;;;3.40;1.73;;;;;;;12.45;92.21;100768.31;2089257;28;20946;-65
2024/02/08 01:56:53;;;;;;;4.93;1.67;;;;;;;12.09;92.21;100714.22;2080722;28;20521;-65
2024/02/08 01:57:53;;;;;;;3.07;1.83;;;;;;;12.45;92.33;100762.75;2080080;28;20450;-65
2024/02/08 01:58:57;;;;;;;9.77;1.73;;;;;;;12.51;92.04;100768.56;2084119;28;20926;-65
2024/02/08 01:59:57;;;;;;;3.23;1.47;;;;;;;12.48;92.50;100767.44;2088310;28;20635;-65
2024/02/08 02:00:59;;;;;;;4.77;1.67;;;;;;;11.50;92.08;100616.72;2086420;28;20553;-65
2024/02/08 02:02:01;;;;;;;1.93;1.30;;;;;;;12.46;92.19;100766.34;2081805;28;20246;-65
2024/02/08 02:03:11;;;;;;;2.37;1.37;;;;;;;12.47;92.45;100760.34;2083799;28;20441;-65
2024/02/08 02:04:15;;;;;;;1.97;1.20;;;;;;;11.99;92.63;100676.44;2083527;28;20446;-65
2024/02/08 02:05:17;;;;;;;3.53;1.53;;;;;;;12.48;92.63;100759.13;2082395;28;20442;-65
2024/02/08 02:06:18;;;;;;;2.17;1.37;;;;;;;12.48;92.58;100761.91;2087194;28;20487;-65
2024/02/08 02:07:19;;;;;;;2.37;1.43;;;;;;;12.49;92.30;100757.88;2089559;28;20431;-65
2024/02/08 02:08:26;;;;;;;3.30;1.83;;;;;;;12.49;92.08;100757.88;2080488;28;20271;-65
2024/02/08 02:09:30;;;;;;;2.50;1.53;;;;;;;12.44;91.98;100752.88;2085787;28;20196;-65
2024/02/08 02:10:30;;;;;;;3.63;1.87;;;;;;;12.49;92.16;100765.44;2081668;28;20946;-65
2024/02/08 02:11:42;;;;;;;2.67;1.40;;;;;;;12.50;92.01;100753.88;2079681;28;20807;-66
2024/02/08 02:12:48;;;;;;;2.90;1.27;;;;;;;12.48;92.06;100758.31;2079832;28;20203;-65
2024/02/08 02:13:51;;;;;;;1.80;1.20;;;;;;;12.33;92.76;100746.84;2079843;28;20436;-65
2024/02/08 02:14:53;;;;;;;2.50;1.27;;;;;;;12.27;92.61;100736.72;2079434;28;20447;-65
2024/02/08 02:15:53;;;;;;;2.70;1.30;;;;;;;12.17;92.88;100729.47;2079652;28;20424;-65
2024/02/08 02:17:03;;;;;;;3.30;1.47;;;;;;;12.40;93.00;100760.53;2089373;28;20461;-65
2024/02/08 02:18:07;;;;;;;1.93;1.40;;;;;;;12.42;92.73;100757.31;2080226;28;20650;-66
2024/02/08 02:19:08;;;;;;;2.03;1.20;;;;;;;12.24;92.58;100730.03;2085472;28;20496;-66
2024/02/08 02:20:12;;;;;;;3.63;1.40;;;;;;;12.34;92.70;100753.97;2078875;28;20454;-65
2024/02/08 02:21:17;;;;;;;2.37;1.37;;;;;;;12.32;93.09;100753.63;2079432;28;20457;-65
2024/02/08 02:22:19;;;;;;;3.33;1.50;;;;;;;12.32;93.38;100753.63;2079785;28;20482;-65
2024/02/08 02:23:20;;;;;;;2.30;1.40;;;;;;;12.12;93.36;100719.69;2079881;28;20424;-65
2024/02/08 02:24:24;;;;;;;2.03;1.30;;;;;;;12.32;93.30;100747.28;2079287;28;20459;-65
2024/02/08 02:25:28;;;;;;;1.70;1.00;;;;;;;12.25;93.34;100733.59;2081305;28;20188;-65
2024/02/08 02:26:32;;;;;;;2.37;1.33;;;;;;;12.23;93.68;100738.81;2085235;28;20566;-65
2024/02/08 02:27:39;;;;;;;2.67;1.40;;;;;;;12.26;93.52;100744.28;2080956;28;20493;-65
2024/02/08 02:28:42;;;;;;;3.00;1.60;;;;;;;12.25;93.91;100745.47;2084746;28;20479;-65
2024/02/08 02:29:44;;;;;;;2.17;1.57;;;;;;;12.26;94.18;100747.06;2086407;28;20449;-65
2024/02/08 02:30:46;;;;;;;2.83;1.63;;;;;;;12.26;94.14;100746.28;2084578;28;20445;-65
2024/02/08 02:31:49;;;;;;;2.93;1.60;;;;;;;12.26;94.35;100755.41;2080253;28;20520;-65
2024/02/08 02:32:50;;;;;;;1.73;1.30;;;;;;;12.23;94.22;100736.03;2087689;28;20504;-65
2024/02/08 02:33:53;;;;;;;3.20;1.40;;;;;;;12.27;94.26;100754.19;2081117;28;20964;-65
2024/02/08 02:34:54;;;;;;;3.67;1.43;;;;;;;12.29;94.29;100748.94;2079335;28;20445;-65
2024/02/08 02:35:55;;;;;;;2.90;1.70;;;;;;;12.31;94.23;100751.28;2079874;28;20453;-65
2024/02/08 02:36:58;;;;;;;5.17;1.80;;;;;;;12.27;94.34;100754.19;2083258;28;20441;-65
2024/02/08 02:38:02;;;;;;;2.40;1.50;;;;;;;12.21;94.26;100747.59;2087003;28;20210;-65
2024/02/08 02:39:05;;;;;;;2.63;1.77;;;;;;;12.24;94.83;100757.06;2086046;28;20486;-65
2024/02/08 02:40:06;;;;;;;2.70;1.03;;;;;;;12.26;94.43;100755.41;2078945;28;20447;-66
2024/02/08 02:41:07;;;;;;;2.97;1.70;;;;;;;12.32;94.22;100755.63;2080402;28;20516;-65
2024/02/08 02:42:08;;;;;;;2.20;1.20;;;;;;;11.93;94.04;100692.06;2079866;28;20505;-65
2024/02/08 02:43:10;;;;;;;2.27;1.50;;;;;;;12.13;94.32;100743.47;2084939;28;20452;-65
2024/02/08 02:44:10;;;;;;;2.37;1.20;;;;;;;12.22;94.31;100734.47;2083289;28;20446;-65
2024/02/08 02:45:13;;;;;;;2.97;1.40;;;;;;;12.17;94.36;100746.13;2081211;28;20427;-65
2024/02/08 02:46:13;;;;;;;2.47;1.23;;;;;;;12.23;94.55;100755.47;2086674;28;20187;-65
2024/02/08 02:47:14;;;;;;;4.90;1.63;;;;;;;12.24;94.48;100752.25;2089304;28;20517;-65
2024/02/08 02:48:14;;;;;;;3.47;1.50;;;;;;;12.27;94.59;100743.06;2087324;28;20201;-65
2024/02/08 02:49:20;;;;;;;3.63;1.57;;;;;;;12.15;94.45;100740.25;2082149;28;20337;-65
2024/02/08 02:50:22;;;;;;;2.10;1.13;;;;;;;12.31;94.36;100751.28;2079271;28;20283;-65
2024/02/08 02:51:26;;;;;;;3.67;1.60;;;;;;;12.23;94.17;100730.47;2081840;28;21059;-65
2024/02/08 02:52:26;;;;;;;6.27;2.20;;;;;;;12.10;94.68;100726.91;2085504;28;21009;-65
2024/02/08 02:53:30;;;;;;;2.37;1.40;;;;;;;12.31;94.50;100745.72;2079946;28;20834;-65
2024/02/08 02:54:30;;;;;;;4.20;1.70;;;;;;;12.25;94.70;100750.28;2080704;28;20181;-65
2024/02/08 02:55:31;;;;;;;2.10;1.27;;;;;;;12.26;94.76;100746.28;2079743;28;20486;-65
2024/02/08 02:56:31;;;;;;;4.10;2.00;;;;;;;12.28;94.59;100741.03;2084779;28;20202;-65
2024/02/08 02:57:35;;;;;;;4.07;1.60;;;;;;;12.25;94.93;100745.47;2083279;28;20197;-65
2024/02/08 02:58:36;;;;;;;6.00;1.80;;;;;;;12.21;95.24;100744.03;2081581;28;20199;-65
2024/02/08 02:59:37;;;;;;;3.23;1.30;;;;;;;12.25;95.26;100741.94;2086224;28;20746;-65
2024/02/08 03:00:37;;;;;;;4.07;1.47;;;;;;;12.26;95.09;100743.50;2089170;28;20188;-65
2024/02/08 03:01:38;;;;;;;2.53;1.50;;;;;;;12.28;94.77;100747.41;2079340;28;20661;-65
2024/02/08 03:02:39;;;;;;;2.83;1.47;;;;;;;12.28;94.63;100746.59;2084709;28;20283;-66
2024/02/08 03:03:40;;;;;;;2.73;1.40;;;;;;;12.29;94.51;100743.38;2086863;28;20192;-65
2024/02/08 03:04:40;;;;;;;4.73;1.77;;;;;;;11.30;94.47;100602.97;2086547;28;20291;-65
2024/02/08 03:05:45;;;;;;;2.67;1.40;;;;;;;12.25;94.68;100737.16;2086428;28;20179;-65
2024/02/08 03:06:46;;;;;;;3.50;1.67;;;;;;;12.27;94.63;100739.50;2079762;28;20176;-65
2024/02/08 03:07:50;;;;;;;4.00;1.53;;;;;;;12.15;94.84;100726.34;2088275;28;20457;-65
2024/02/08 03:08:51;;;;;;;1.87;1.43;;;;;;;12.27;94.71;100740.28;2080409;28;20672;-65
2024/02/08 03:09:51;;;;;;;3.47;1.30;;;;;;;12.24;94.88;100743.94;2078961;28;20456;-65
2024/02/08 03:10:52;;;;;;;3.00;1.33;;;;;;;12.25;94.81;100750.28;2082808;28;20653;-65
2024/02/08 03:11:53;;;;;;;2.43;1.40;;;;;;;12.25;94.93;100756.59;2084752;28;20174;-65
2024/02/08 03:12:53;;;;;;;1.87;1.30;;;;;;;12.21;94.91;100750.38;2079693;28;20173;-65
2024/02/08 03:13:55;;;;;;;3.10;1.50;;;;;;;12.19;95.02;100749.25;2088732;28;20412;-65
2024/02/08 03:15:00;;;;;;;5.10;1.80;;;;;;;11.45;94.93;100633.88;2086628;28;20224;-65
2024/02/08 03:16:05;;;;;;;2.20;1.33;;;;;;;12.20;95.12;100753.59;2087171;28;20864;-65
2024/02/08 03:17:06;;;;;;;1.73;1.20;;;;;;;11.74;94.88;100698.56;2082020;28;20457;-65
2024/02/08 03:18:14;;;;;;;3.43;1.57;;;;;;;12.07;95.24;100738.88;2079098;28;20448;-65
2024/02/08 03:19:15;;;;;;;2.33;1.40;;;;;;;12.17;95.32;100757.25;2079345;28;21056;-65
2024/02/08 03:20:17;;;;;;;5.47;1.60;;;;;;;12.04;95.17;100737.75;2079826;28;20482;-65
2024/02/08 03:21:17;;;;;;;3.53;1.47;;;;;;;12.08;95.52;100755.09;2087182;28;20415;-66
2024/02/08 03:22:18;;;;;;;1.80;1.30;;;;;;;11.56;95.69;100662.91;2079329;28;21129;-65
2024/02/08 03:23:24;;;;;;;3.07;1.43;;;;;;;12.13;95.34;100751.78;2085711;28;20196;-65
2024/02/08 03:24:25;;;;;;;2.30;1.40;;;;;;;12.14;95.23;100755.34;2081773;28;20200;-65
2024/02/08 03:25:26;;;;;;;3.27;1.57;;;;;;;12.07;95.46;100750.78;2083165;28;20446;-65
2024/02/08 03:26:26;;;;;;;4.70;1.50;;;;;;;12.07;95.51;100749.97;2084440;28;20422;-65
2024/02/08 03:27:30;;;;;;;3.50;1.57;;;;;;;11.97;95.59;100728.84;2079040;28;20185;-65
2024/02/08 03:28:30;;;;;;;1.97;1.37;;;;;;;12.10;95.41;100747.09;2088066;28;20758;-65
2024/02/08 03:29:34;;;;;;;4.80;1.83;;;;;;;12.04;95.46;100746.09;2078906;28;20820;-65
2024/02/08 03:30:34;;;;;;;3.77;1.70;;;;;;;11.99;95.49;100734.75;2079476;28;20638;-65
2024/02/08 03:31:35;;;;;;;2.70;1.50;;;;;;;12.04;95.57;100745.31;2078053;28;20928;-65
2024/02/08 03:32:36;;;;;;;2.70;1.33;;;;;;;11.92;96.38;100754.38;2084953;28;20284;-65
2024/02/08 03:33:39;;;;;;;2.57;1.53;;;;;;;11.97;96.85;100746.28;2085758;28;20208;-65
2024/02/08 03:34:40;;;;;;;4.00;1.50;;;;;;;11.99;96.67;100743.09;2078834;28;20265;-65
2024/02/08 03:35:42;;;;;;;3.57;1.63;;;;;;;11.98;96.76;100741.50;2088959;28;20427;-65
2024/02/08 03:36:46;;;;;;;3.20;1.70;;;;;;;11.36;96.47;100653.94;2080399;28;20196;-65
2024/02/08 03:37:48;;;;;;;4.13;1.40;;;;;;;11.88;97.20;100750.94;2078747;28;20453;-65
2024/02/08 03:38:52;;;;;;;5.70;1.50;;;;;;;11.75;97.95;100747.31;2083504;28;20449;-65
2024/02/08 03:39:53;;;;;;;3.03;1.50;;;;;;;11.80;98.16;100750.34;2082917;28;20469;-65
2024/02/08 03:40:54;;;;;;;2.63;1.73;;;;;;;11.85;97.98;100749.03;2078529;28;20475;-65
2024/02/08 03:42:04;;;;;;;6.23;1.90;;;;;;;11.81;98.35;100743.56;2079508;28;20213;-65
2024/02/08 03:43:04;;;;;;;3.07;1.47;;;;;;;11.61;97.81;100701.28;2080792;28;20412;-65
2024/02/08 03:44:05;;;;;;;2.03;1.30;;;;;;;11.84;97.84;100742.66;2079041;28;20538;-65
2024/02/08 03:45:06;;;;;;;2.73;1.60;;;;;;;11.84;97.71;100744.69;2079542;28;20234;-65
2024/02/08 03:46:07;;;;;;;2.40;1.77;;;;;;;11.79;97.83;100742.44;2079058;28;20287;-65
2024/02/08 03:47:07;;;;;;;2.40;1.43;;;;;;;11.69;97.89;100730.38;2078709;28;20463;-66
2024/02/08 03:48:10;;;;;;;2.47;1.50;;;;;;;11.85;97.65;100744.25;2079131;28;20180;-65
2024/02/08 03:49:12;;;;;;;3.30;1.83;;;;;;;11.69;97.80;100726.84;2079659;28;20328;-65
2024/02/08 03:50:15;;;;;;;2.93;1.90;;;;;;;11.78;97.62;100749.22;2079746;28;20957;-65
2024/02/08 03:51:15;;;;;;;6.23;1.67;;;;;;;11.78;97.69;100752.00;2078577;28;20939;-65
2024/02/08 03:52:20;;;;;;;2.60;1.37;;;;;;;11.75;97.78;100750.06;2079180;28;20444;-65
2024/02/08 03:53:21;;;;;;;2.80;1.60;;;;;;;11.75;98.02;100744.53;2083381;28;20469;-65
2024/02/08 03:54:24;;;;;;;3.83;1.93;;;;;;;11.78;97.89;100749.22;2084196;28;20458;-65
2024/02/08 03:55:28;;;;;;;1.87;1.40;;;;;;;11.58;97.88;100707.66;2079221;28;20422;-65
2024/02/08 03:56:36;;;;;;;3.53;1.53;;;;;;;11.71;97.83;100739.06;2079127;28;21088;-65
2024/02/08 03:57:37;;;;;;;3.07;1.73;;;;;;;10.82;97.92;100608.59;2080870;28;20409;-65
2024/02/08 03:58:37;;;;;;;2.87;1.57;;;;;;;11.68;98.13;100741.94;2086545;28;20489;-67
2024/02/08 03:59:41;;;;;;;2.70;1.50;;;;;;;11.69;98.38;100747.03;2080788;28;20544;-67
2024/02/08 04:00:43;;;;;;;2.47;1.30;;;;;;;11.63;98.51;100737.69;2081813;28;20199;-68
2024/02/08 04:01:46;;;;;;;3.47;1.80;;;;;;;11.68;98.48;100736.41;2086303;28;20486;-67
2024/02/08 04:02:47;;;;;;;2.47;1.53;;;;;;;11.68;98.55;100730.84;2086555;28;20439;-67
2024/02/08 04:03:56;;;;;;;3.23;1.67;;;;;;;11.72;98.48;100732.31;2086527;28;20415;-67
2024/02/08 04:05:05;;;;;;;6.43;1.60;;;;;;;11.68;98.21;100731.59;2079955;28;20161;-67
2024/02/08 04:06:26;;;;;;;4.77;1.47;;;;;;;11.63;98.44;100731.38;2080817;28;20418;-67
2024/02/08 04:10:19;;;;;;;6.27;1.90;;;;;;;11.55;99.42;100727.19;2078457;28;20403;-67
2024/02/08 04:53:38;;;;;;;2.77;1.60;;;;;;;10.52;100.00;100705.16;2087604;28;20903;-71
2024/02/08 04:54:40;;;;;;;3.00;1.60;;;;;;;10.66;100.00;100741.63;2086900;28;20405;-70
2024/02/08 04:55:41;;;;;;;4.60;1.70;;;;;;;10.63;100.00;100738.94;2081853;28;20443;-70
2024/02/08 04:56:41;;;;;;;2.63;1.43;;;;;;;10.78;100.00;100745.72;2087912;28;20442;-70
2024/02/08 04:57:43;;;;;;;3.77;1.53;;;;;;;10.60;100.00;100739.81;2087687;28;20196;-70
2024/02/08 04:58:46;;;;;;;6.67;1.90;;;;;;;10.68;100.00;100755.06;2088709;28;20199;-72
2024/02/08 04:59:46;;;;;;;3.50;1.77;;;;;;;10.73;100.00;100749.81;2081889;28;20404;-71
2024/02/08 05:00:47;;;;;;;5.53;1.93;;;;;;;10.72;100.00;100753.00;2080716;28;20473;-71
2024/02/08 05:01:47;;;;;;;4.40;2.40;;;;;;;10.66;100.00;100757.50;2088696;28;20184;-70
2024/02/08 05:02:49;;;;;;;4.10;1.80;;;;;;;10.60;100.00;100748.13;2090347;28;20199;-69
2024/02/08 05:03:50;;;;;;;3.23;1.70;;;;;;;10.67;100.00;100756.28;2088763;28;20196;-70
2024/02/08 05:04:50;;;;;;;4.23;1.83;;;;;;;10.74;100.00;100759.66;2085107;28;20515;-70
2024/02/08 05:05:54;;;;;;;2.97;1.80;;;;;;;10.63;100.00;100745.28;2080887;28;20256;-70
2024/02/08 05:06:55;;;;;;;5.00;2.13;;;;;;;10.05;100.00;100642.88;2094879;28;20553;-70
2024/02/08 05:08:00;;;;;;;6.23;1.90;;;;;;;10.79;100.00;100758.38;2089665;28;20453;-70
2024/02/08 05:09:01;;;;;;;4.30;2.17;;;;;;;10.80;100.00;100746.84;2089647;28;20923;-69
2024/02/08 05:10:01;;;;;;;4.83;1.90;;;;;;;10.83;100.00;100748.78;2083000;28;20824;-70
2024/02/08 05:11:03;;;;;;;4.17;2.10;;;;;;;10.77;100.00;100722.75;2080689;28;20283;-70
2024/02/08 05:12:05;;;;;;;4.27;2.30;;;;;;;10.84;100.00;100747.56;2090189;28;20169;-70
2024/02/08 05:13:05;;;;;;;7.27;2.40;;;;;;;10.82;100.00;100744.41;2085665;28;20439;-72
2024/02/08 05:14:06;;;;;;;3.10;1.87;;;;;;;10.86;100.00;100752.69;2087631;28;20418;-73
2024/02/08 05:15:12;;;;;;;7.53;2.63;;;;;;;10.02;100.00;100625.09;2088238;28;20247;-73
2024/02/08 05:16:16;;;;;;;3.27;1.73;;;;;;;10.79;100.00;100756.38;2082611;28;20199;-73
2024/02/08 05:17:16;;;;;;;3.33;1.90;;;;;;;10.77;100.00;100747.69;2082274;28;20566;-73
2024/02/08 05:18:17;;;;;;;5.03;2.17;;;;;;;10.84;100.00;100747.56;2083477;28;20435;-73
2024/02/08 05:19:17;;;;;;;4.37;1.60;;;;;;;10.95;100.00;100738.97;2081352;28;20200;-73
2024/02/08 05:20:18;;;;;;;4.47;1.90;;;;;;;10.97;100.00;100750.44;2078809;28;20177;-73
2024/02/08 05:21:19;;;;;;;7.00;2.20;;;;;;;10.31;100.00;100639.91;2080663;28;20173;-73
2024/02/08 05:22:19;;;;;;;2.20;1.53;;;;;;;11.02;100.00;100742.38;2078857;28;20335;-73
2024/02/08 05:23:20;;;;;;;2.50;1.80;;;;;;;11.06;100.00;100742.31;2084716;28;20448;-73
2024/02/08 05:24:20;;;;;;;4.03;1.60;;;;;;;11.10;100.00;100751.31;2086628;28;20192;-73
2024/02/08 05:25:21;;;;;;;5.30;2.13;;;;;;;11.17;100.00;100754.69;2085800;28;20294;-73
2024/02/08 05:26:25;;;;;;;3.57;1.53;;;;;;;10.37;100.00;100632.66;2082448;28;20169;-73
2024/02/08 05:27:25;;;;;;;4.00;1.90;;;;;;;10.51;100.00;100651.72;2087571;28;20266;-73
2024/02/08 05:28:26;;;;;;;2.60;1.57;;;;;;;10.30;100.00;100601.56;2086339;28;20994;-73
2024/02/08 05:29:28;;;;;;;2.27;1.43;;;;;;;10.89;100.00;100685.25;2084508;28;20645;-73
2024/02/08 05:30:32;;;;;;;2.53;1.40;;;;;;;11.14;100.00;100724.28;2082795;28;20633;-73
2024/02/08 05:31:39;;;;;;;4.07;1.67;;;;;;;11.37;100.00;100746.28;2079133;28;20443;-70
2024/02/08 05:32:40;;;;;;;3.40;2.20;;;;;;;11.06;100.00;100695.94;2082889;28;21103;-69
2024/02/08 05:33:40;;;;;;;4.67;2.37;;;;;;;11.42;100.00;100751.31;2079846;28;20544;-68